< Cyclone 198106 1981 Season Cyclone 198108 >
Cyclone 198107 (MABEL)
General InformationTrack Information on Google Maps || ResourceGoogle EarthGE AnimationAtom FeedGeoJSON
Detalied Best Track (Time Zone = UTC)
Year Month Day Hour Lat. Long. Pressure (hPa) Wind (kt) Class Image Chart
1981 1 12 00 -11.7 110.1 1004 0 0 -- --
1981 1 12 06 -12.1 111.1 1002 0 0 -- --
1981 1 12 12 -12.3 112.3 999 0 0 -- --
1981 1 12 18 -12.4 113.3 997 0 0 -- --
1981 1 13 00 -12.8 114.1 995 0 0 -- --
1981 1 13 06 -13.2 114.8 993 0 0 -- --
1981 1 13 12 -13.7 115.6 992 0 0 -- --
1981 1 13 18 -14.0 116.6 990 0 0 -- --
1981 1 14 00 -14.2 117.4 990 0 0 -- --
1981 1 14 06 -14.6 117.8 989 0 0 -- --
1981 1 14 12 -15.1 117.9 988 0 0 -- --
1981 1 14 18 -15.7 117.9 988 0 0 -- --
1981 1 15 00 -16.1 117.8 988 0 0 -- --
1981 1 15 06 -16.6 117.7 986 0 0 -- --
1981 1 15 12 -16.9 117.5 985 0 0 -- --
1981 1 15 18 -17.1 117.3 983 0 0 -- --
1981 1 16 00 -17.4 117.2 980 0 0 -- --
1981 1 16 06 -17.7 117.0 975 0 0 -- --
1981 1 16 12 -17.8 116.8 970 0 0 -- --
1981 1 16 18 -17.9 116.5 965 0 0 -- --
1981 1 17 00 -18.0 116.2 960 0 0 -- --
1981 1 17 06 -18.1 116.0 955 0 0 -- --
1981 1 17 12 -18.2 115.7 950 0 0 -- --
1981 1 17 18 -18.5 115.2 944 0 0 -- --
1981 1 18 00 -18.8 114.8 937 0 0 -- --
1981 1 18 06 -19.6 114.0 930 0 0 -- --
1981 1 18 12 -20.4 113.3 934 0 0 -- --
1981 1 18 18 -21.4 112.8 939 0 0 -- --
1981 1 19 00 -22.3 112.4 945 0 0 -- --
1981 1 19 06 -23.2 112.2 956 0 0 -- --
1981 1 19 12 -23.9 111.9 966 0 0 -- --
1981 1 19 18 -24.4 111.4 976 0 0 -- --
1981 1 20 00 -24.5 110.8 980 0 0 -- --
1981 1 20 06 -24.2 110.1 991 0 0 -- --
1981 1 20 12 -23.9 109.6 995 0 0 -- --
1981 1 20 18 -23.2 108.9 1000 0 0 -- --
1981 1 21 00 -22.4 108.2 1004 0 0 -- --
< Cyclone 198106 1981 Season Cyclone 198108 >

Help